Wycombe, Pennsylvania
Current Conditions -  °F | °C
As of 7:33 AM on Tuesday 27 Jan 2015 (Local Time) from KDYL Reporting Station
Light Snow Light Snow  
Wind Chill: 15°   Ceiling: 1800
Heat Index: 23°   Visibility: 2mi
Dew Point: 21°   Wind: 7mph
Humidity: 92%   Direction: NA
Pressure: 29.71"   Gusts: NA
Location:  40.28°N, 75.02°W
Report Text: KDYL 271233Z AUTO VRB06KT 2SM -SN BR FEW014 OVC018 M05/M06 A2971 RMK AO2 P0000 T10501061
Loading
Personal Weather Stations






























Interactive Weather Map New forecast layout! Learn more

10-Day Weather Forecast

Advertisements
Track Severe Weather on mobile